Zadoi, China
Current Conditions -  °F | °C
As of 8:00 PM on Saturday 25 Oct 2014 (Local Time) from ZLLL Reporting Station
Clear Clear  
Wind Chill: 50°   Ceiling: Unl
Heat Index: 50°   Visibility: 4mi
Dew Point: 37°   Wind: 7mph
Humidity: 62%   Direction: 340°NNW
Pressure: 30.15"   Gusts: NA
Location:  32.9°N, 95.3°E
Report Text: ZLLL 251200Z 34003MPS 7000 NSC 10/03 Q1021 NOSIG
Loading
Personal Weather Stations






























Interactive Weather Map
Tropical Storm Tracking
New forecast layout! Learn more

10-Day Weather Forecast

Advertisements
Track Severe Weather on mobile